Nova Alvorada, Brazil
Current Conditions -  °F | °C
As of 6:00 AM on Tuesday 21 Oct 2014 (Local Time) from SBCG Reporting Station
Scattered Clouds Scattered Clouds  
Wind Chill: 66°   Ceiling: Unl
Heat Index: 66°   Visibility: 6mi
Dew Point: 63°   Wind: 10mph
Humidity: 88%   Direction: 90°E
Pressure: 30"   Gusts: NA
Location:  21.47°S, 54.37°W
Report Text: SBCG 210900Z 09009KT 9999 SCT006 SCT100 19/17 Q1016
Loading
Personal Weather Stations






























Interactive Weather Map
Tropical Storm Tracking
New forecast layout! Learn more

10-Day Weather Forecast

Advertisements
Track Severe Weather on mobile